Time;durP1;ratioP1;P1;durP2;ratioP2;P2;SDS_P1;SDS_P2;PMS_P1;PMS_P2;Temp;Humidity;BMP_temperature;BMP_pressure;BME280_temperature;BME280_humidity;BME280_pressure;Samples;Min_cycle;Max_cycle;Signal;HPM_P1;HPM_P2
2021/09/30 00:02:07;;;;;;;1.25;0.30;;;11.60;94.70;;;;;;5073986;28;20028;-77
2021/09/30 00:04:33;;;;;;;1.17;0.40;;;11.60;94.70;;;;;;5073374;28;20082;-77
2021/09/30 00:06:59;;;;;;;0.90;0.30;;;11.60;94.70;;;;;;5073037;28;20028;-77
2021/09/30 00:09:25;;;;;;;1.30;0.68;;;11.50;94.70;;;;;;5073352;28;20359;-78
2021/09/30 00:11:55;;;;;;;1.73;0.50;;;11.60;94.80;;;;;;5074302;28;20054;-77
2021/09/30 00:14:36;;;;;;;0.98;0.30;;;11.60;94.80;;;;;;5072916;28;20489;-77
2021/09/30 00:36:09;;;;;;;1.60;0.40;;;11.30;95.10;;;;;;5074055;28;20036;-77
2021/09/30 00:46:45;;;;;;;1.27;0.30;;;11.20;95.40;;;;;;5073563;28;20043;-77
2021/09/30 03:01:06;;;;;;;1.52;0.50;;;10.40;96.40;;;;;;5075987;28;20024;-77
2021/09/30 03:03:35;;;;;;;3.75;0.30;;;10.40;96.40;;;;;;5075269;28;20048;-77
2021/09/30 03:06:01;;;;;;;1.58;0.40;;;10.40;96.40;;;;;;5074607;28;20039;-76
2021/09/30 03:08:29;;;;;;;1.38;0.50;;;10.40;96.30;;;;;;5074004;28;20028;-77
2021/09/30 03:11:00;;;;;;;1.98;1.08;;;10.40;96.30;;;;;;5074546;28;20021;-77
2021/09/30 03:13:28;;;;;;;2.78;0.70;;;10.40;96.40;;;;;;5073859;28;20032;-76
2021/09/30 03:16:01;;;;;;;1.35;0.55;;;10.30;96.30;;;;;;5074076;28;20033;-77
2021/09/30 03:23:34;;;;;;;1.20;0.50;;;10.40;96.30;;;;;;5074748;28;20029;-77
2021/09/30 03:26:01;;;;;;;2.35;0.80;;;10.30;96.30;;;;;;5074104;28;20037;-77
2021/09/30 03:28:28;;;;;;;1.73;0.50;;;10.30;96.30;;;;;;5073686;28;20024;-77
2021/09/30 03:30:56;;;;;;;8.40;0.95;;;10.30;96.40;;;;;;5074057;28;20025;-77
2021/09/30 03:33:24;;;;;;;2.45;0.70;;;10.30;96.40;;;;;;5074541;28;20090;-77
2021/09/30 03:35:50;;;;;;;1.25;0.55;;;10.30;96.40;;;;;;5075080;28;20071;-77
2021/09/30 03:38:18;;;;;;;2.95;0.60;;;10.30;96.40;;;;;;5073353;28;20029;-77
2021/09/30 03:40:44;;;;;;;0.82;0.50;;;10.30;96.50;;;;;;5073737;28;20028;-77
2021/09/30 03:43:11;;;;;;;1.35;0.40;;;10.30;96.50;;;;;;5073747;28;20108;-77
2021/09/30 03:45:38;;;;;;;2.50;0.50;;;10.30;96.50;;;;;;5073364;28;20496;-77
2021/09/30 03:48:04;;;;;;;3.22;0.68;;;10.20;96.60;;;;;;5073968;28;20028;-77
2021/09/30 03:50:33;;;;;;;5.25;0.95;;;10.20;96.60;;;;;;5072800;28;20028;-77
2021/09/30 03:53:12;;;;;;;1.25;0.45;;;10.30;96.70;;;;;;5073666;28;20480;-76
2021/09/30 03:55:58;;;;;;;2.50;0.68;;;10.30;96.70;;;;;;5072730;28;20466;-77
2021/09/30 04:01:09;;;;;;;2.03;0.60;;;10.30;96.80;;;;;;5074496;28;20039;-77
2021/09/30 04:03:35;;;;;;;1.10;0.55;;;10.20;96.90;;;;;;5073101;28;20044;-77
2021/09/30 04:06:01;;;;;;;1.83;0.70;;;10.20;96.90;;;;;;5073507;28;20036;-76
2021/09/30 04:08:28;;;;;;;4.63;0.60;;;10.20;97.00;;;;;;5072992;28;20385;-77
2021/09/30 04:10:53;;;;;;;3.92;0.70;;;10.20;97.00;;;;;;5074465;28;20028;-78
2021/09/30 04:13:19;;;;;;;3.20;0.60;;;10.20;97.10;;;;;;5072731;28;20031;-78
2021/09/30 04:15:47;;;;;;;3.83;0.60;;;10.20;97.10;;;;;;5073273;28;20051;-77
2021/09/30 04:18:12;;;;;;;1.80;0.65;;;10.10;97.10;;;;;;5073198;28;20029;-76
2021/09/30 04:20:38;;;;;;;2.83;0.68;;;10.10;97.10;;;;;;5072662;28;20135;-77
2021/09/30 04:23:04;;;;;;;2.75;0.60;;;10.20;97.10;;;;;;5072993;28;20025;-77
2021/09/30 04:25:30;;;;;;;3.60;0.70;;;10.20;97.10;;;;;;5073652;28;20468;-77
2021/09/30 04:27:56;;;;;;;2.95;0.50;;;10.20;97.00;;;;;;5072910;28;20115;-76
2021/09/30 04:30:21;;;;;;;1.70;0.70;;;10.20;97.00;;;;;;5073662;28;20029;-77
2021/09/30 04:32:47;;;;;;;1.17;0.47;;;10.20;97.00;;;;;;5072893;28;20105;-77
2021/09/30 04:35:13;;;;;;;2.55;0.85;;;10.20;97.00;;;;;;5072944;28;20475;-77
2021/09/30 04:37:39;;;;;;;2.50;0.60;;;10.20;97.00;;;;;;5072295;28;20036;-77
2021/09/30 04:40:05;;;;;;;1.70;0.60;;;10.20;96.90;;;;;;5073115;28;20025;-77
2021/09/30 04:42:31;;;;;;;2.65;0.65;;;10.20;97.00;;;;;;5073557;28;20047;-77
2021/09/30 04:44:57;;;;;;;1.35;0.70;;;10.20;97.10;;;;;;5073525;28;20466;-77
2021/09/30 04:47:22;;;;;;;3.35;0.80;;;10.20;97.20;;;;;;5072252;28;20036;-77
2021/09/30 04:49:48;;;;;;;4.82;1.00;;;10.20;97.20;;;;;;5072932;28;20528;-77
2021/09/30 04:52:14;;;;;;;4.35;1.00;;;10.20;97.20;;;;;;5072816;28;20024;-77
2021/09/30 04:54:40;;;;;;;3.00;0.75;;;10.20;97.20;;;;;;5073290;28;20024;-77
2021/09/30 04:57:06;;;;;;;2.15;0.80;;;10.20;97.10;;;;;;5072121;28;20056;-77
2021/09/30 04:59:32;;;;;;;1.88;0.85;;;10.20;97.20;;;;;;5072219;28;20021;-77
2021/09/30 05:01:58;;;;;;;3.10;0.90;;;10.30;97.20;;;;;;5072403;28;20039;-76
2021/09/30 05:04:23;;;;;;;4.88;1.13;;;10.20;97.20;;;;;;5072125;28;20037;-77
2021/09/30 05:06:49;;;;;;;3.10;0.90;;;10.20;97.20;;;;;;5073214;28;20062;-77
2021/09/30 05:09:15;;;;;;;3.97;1.30;;;10.20;97.20;;;;;;5072959;28;20024;-77
2021/09/30 05:11:50;;;;;;;5.25;1.27;;;10.20;97.30;;;;;;5072111;28;20056;-77
2021/09/30 05:14:16;;;;;;;5.53;1.30;;;10.20;97.30;;;;;;5073943;28;20421;-76
2021/09/30 05:16:41;;;;;;;4.30;0.93;;;10.20;97.40;;;;;;5071918;28;20037;-76
2021/09/30 05:19:07;;;;;;;6.68;1.50;;;10.20;97.40;;;;;;5073413;28;20112;-77
2021/09/30 05:21:33;;;;;;;4.60;1.05;;;10.20;97.30;;;;;;5073001;28;20465;-77
2021/09/30 05:23:58;;;;;;;2.00;1.13;;;10.30;97.30;;;;;;5072186;28;20028;-77
2021/09/30 05:26:27;;;;;;;6.63;1.00;;;10.30;97.20;;;;;;5071528;28;20521;-77
2021/09/30 05:28:53;;;;;;;1.38;0.88;;;10.20;97.40;;;;;;5072270;28;20025;-77
2021/09/30 05:31:19;;;;;;;4.15;0.73;;;10.20;97.20;;;;;;5073406;28;20025;-80
2021/09/30 05:33:45;;;;;;;3.58;0.68;;;10.20;97.10;;;;;;5072776;28;20089;-77
2021/09/30 05:36:11;;;;;;;3.55;0.80;;;10.20;97.10;;;;;;5072410;28;20465;-77
2021/09/30 05:38:36;;;;;;;2.90;0.90;;;10.20;97.10;;;;;;5071853;28;20025;-77
2021/09/30 05:41:03;;;;;;;1.30;0.57;;;10.30;97.10;;;;;;5072365;28;20111;-76
2021/09/30 05:43:32;;;;;;;1.77;0.70;;;10.30;97.10;;;;;;5071646;28;20037;-77
2021/09/30 05:45:58;;;;;;;2.58;0.70;;;10.30;97.10;;;;;;5072159;28;20032;-76
2021/09/30 05:48:25;;;;;;;0.70;0.60;;;10.20;97.20;;;;;;5072730;28;20028;-77
2021/09/30 05:50:52;;;;;;;3.00;0.80;;;10.20;97.10;;;;;;5072027;28;20050;-77
2021/09/30 05:53:18;;;;;;;3.42;0.60;;;10.30;97.10;;;;;;5072033;28;20025;-77
2021/09/30 05:55:45;;;;;;;5.95;0.93;;;10.30;97.00;;;;;;5072440;28;20090;-77
2021/09/30 05:58:13;;;;;;;3.63;0.93;;;10.30;97.10;;;;;;5075133;28;20052;-77
2021/09/30 06:14:12;;;;;;;1.67;0.70;;;10.30;97.00;;;;;;5077275;28;20043;-77
2021/09/30 06:16:44;;;;;;;2.20;0.70;;;10.30;97.20;;;;;;5075244;28;20032;-76
2021/09/30 06:19:10;;;;;;;2.95;0.90;;;10.40;97.30;;;;;;5075337;28;20032;-77
2021/09/30 06:21:36;;;;;;;3.50;1.10;;;10.30;97.30;;;;;;5075082;28;20028;-77
2021/09/30 06:24:01;;;;;;;3.97;0.80;;;10.40;97.20;;;;;;5075190;28;20166;-77
2021/09/30 06:26:28;;;;;;;4.55;0.95;;;10.40;97.00;;;;;;5074716;28;20059;-78
2021/09/30 06:28:54;;;;;;;5.45;0.80;;;10.50;97.00;;;;;;5075678;28;20028;-77
2021/09/30 06:31:20;;;;;;;1.77;0.60;;;10.40;97.00;;;;;;5075571;28;20025;-77
2021/09/30 06:33:45;;;;;;;3.08;0.73;;;10.50;97.00;;;;;;5074679;28;20048;-77
2021/09/30 06:36:11;;;;;;;4.30;0.82;;;10.50;96.90;;;;;;5076539;28;20047;-77
2021/09/30 06:38:37;;;;;;;3.40;0.70;;;10.50;97.00;;;;;;5074886;28;20078;-78
2021/09/30 06:41:02;;;;;;;5.20;0.88;;;10.50;96.80;;;;;;5075371;28;20074;-78
2021/09/30 06:43:28;;;;;;;3.72;1.20;;;10.60;96.80;;;;;;5074675;28;20495;-77
2021/09/30 06:45:54;;;;;;;3.88;0.77;;;10.60;96.90;;;;;;5076060;28;20033;-77
2021/09/30 06:48:19;;;;;;;4.72;1.30;;;10.60;96.80;;;;;;5075914;28;20032;-77
2021/09/30 06:50:46;;;;;;;1.98;0.80;;;10.60;96.70;;;;;;5075576;28;20024;-78
2021/09/30 06:53:12;;;;;;;3.03;1.05;;;10.60;96.90;;;;;;5074891;28;20027;-77
2021/09/30 06:55:42;;;;;;;3.58;0.95;;;10.50;97.10;;;;;;5075230;28;20033;-77
2021/09/30 06:58:10;;;;;;;4.63;1.45;;;10.50;97.20;;;;;;5074846;28;20028;-77
2021/09/30 07:00:37;;;;;;;5.70;1.00;;;10.50;97.40;;;;;;5075252;28;20016;-77
2021/09/30 07:03:02;;;;;;;3.15;1.17;;;10.50;97.50;;;;;;5075028;28;20070;-78
2021/09/30 07:05:28;;;;;;;6.80;1.40;;;10.60;97.50;;;;;;5074176;28;20032;-78
2021/09/30 07:07:54;;;;;;;5.95;1.35;;;10.60;97.40;;;;;;5073914;28;20070;-78
2021/09/30 07:10:19;;;;;;;3.42;1.05;;;10.60;97.50;;;;;;5076298;28;20031;-77
2021/09/30 07:12:46;;;;;;;6.50;1.30;;;10.60;97.60;;;;;;5074028;28;20123;-78
2021/09/30 07:15:12;;;;;;;2.08;0.80;;;10.80;97.20;;;;;;5074634;28;20035;-78
2021/09/30 07:17:38;;;;;;;5.25;0.77;;;10.90;97.00;;;;;;5073933;28;20028;-77
2021/09/30 07:20:05;;;;;;;4.60;1.10;;;10.90;96.80;;;;;;5074704;28;20455;-77
2021/09/30 07:22:31;;;;;;;2.80;0.85;;;10.90;96.80;;;;;;5073520;28;20115;-77
2021/09/30 07:24:56;;;;;;;4.35;1.10;;;11.00;96.70;;;;;;5075448;28;20052;-78
2021/09/30 07:27:22;;;;;;;4.60;1.00;;;11.10;96.90;;;;;;5074061;28;20031;-78
2021/09/30 07:29:48;;;;;;;4.28;0.77;;;11.20;96.20;;;;;;5073253;28;20033;-78
2021/09/30 07:32:13;;;;;;;3.03;0.95;;;11.20;95.90;;;;;;5073901;28;20021;-77
2021/09/30 07:34:39;;;;;;;2.20;0.90;;;11.30;95.60;;;;;;5073335;28;20134;-78
2021/09/30 07:37:05;;;;;;;2.80;0.98;;;11.30;95.70;;;;;;5073751;28;20496;-77
2021/09/30 07:39:31;;;;;;;3.38;1.00;;;11.40;95.70;;;;;;5073025;28;20114;-77
2021/09/30 07:41:58;;;;;;;2.47;1.33;;;11.50;95.30;;;;;;5073013;28;20025;-78
2021/09/30 07:44:25;;;;;;;4.50;0.90;;;11.50;95.50;;;;;;5073575;28;20599;-78
2021/09/30 07:46:52;;;;;;;3.17;0.80;;;11.60;95.50;;;;;;5073945;28;20032;-78
2021/09/30 07:49:18;;;;;;;4.35;1.15;;;11.60;95.40;;;;;;5073090;28;20029;-77
2021/09/30 07:51:44;;;;;;;3.38;1.20;;;11.70;94.80;;;;;;5073779;28;20035;-78
2021/09/30 07:54:10;;;;;;;3.72;1.10;;;11.80;94.70;;;;;;5073098;28;20469;-77
2021/09/30 07:56:35;;;;;;;6.65;1.17;;;11.90;94.90;;;;;;5072388;28;20053;-77
2021/09/30 07:59:02;;;;;;;3.17;0.90;;;12.00;94.60;;;;;;5074316;28;20488;-77
2021/09/30 08:01:28;;;;;;;8.75;0.90;;;12.00;94.50;;;;;;5072972;28;20031;-77
2021/09/30 08:03:54;;;;;;;3.95;0.70;;;12.10;94.80;;;;;;5072800;28;20031;-76
2021/09/30 08:06:20;;;;;;;3.15;0.60;;;12.20;94.30;;;;;;5073291;28;20036;-76
2021/09/30 08:08:46;;;;;;;3.28;0.90;;;12.20;94.10;;;;;;5073806;28;20358;-75
2021/09/30 08:11:12;;;;;;;1.70;0.60;;;12.20;94.00;;;;;;5073073;28;20388;-76
2021/09/30 08:13:41;;;;;;;1.15;0.55;;;12.30;93.30;;;;;;5073428;28;20035;-77
2021/09/30 08:16:07;;;;;;;2.15;0.80;;;12.30;93.40;;;;;;5073159;28;20024;-76
2021/09/30 08:18:33;;;;;;;4.72;0.55;;;12.40;92.80;;;;;;5072332;28;20021;-77
2021/09/30 08:20:59;;;;;;;3.22;0.60;;;12.40;92.90;;;;;;5073211;28;20082;-77
2021/09/30 08:23:25;;;;;;;3.42;0.80;;;12.40;92.60;;;;;;5072727;28;20025;-77
2021/09/30 08:25:51;;;;;;;3.33;0.70;;;12.50;92.70;;;;;;5072390;28;20043;-76
2021/09/30 08:28:20;;;;;;;2.25;0.52;;;12.50;92.70;;;;;;5072856;28;20119;-77
2021/09/30 08:30:46;;;;;;;3.70;0.70;;;12.60;92.70;;;;;;5072382;28;20054;-77
2021/09/30 08:33:11;;;;;;;3.33;0.60;;;12.50;92.70;;;;;;5072946;28;20470;-77
2021/09/30 08:35:38;;;;;;;1.88;0.70;;;12.60;92.50;;;;;;5072262;28;20028;-78
2021/09/30 08:38:05;;;;;;;4.72;0.70;;;12.60;92.60;;;;;;5073003;28;20378;-77
2021/09/30 08:40:32;;;;;;;1.60;0.55;;;12.60;92.90;;;;;;5073484;28;20024;-77
2021/09/30 08:42:58;;;;;;;6.82;0.75;;;12.60;92.10;;;;;;5072793;28;20035;-77
2021/09/30 08:45:24;;;;;;;3.03;0.30;;;12.70;92.40;;;;;;5073917;28;20021;-77
2021/09/30 08:48:02;;;;;;;3.90;0.57;;;12.80;92.50;;;;;;5072788;28;20106;-77
2021/09/30 08:50:32;;;;;;;2.42;0.55;;;12.90;92.10;;;;;;5073740;28;20466;-77
2021/09/30 08:52:59;;;;;;;2.47;0.40;;;13.00;92.20;;;;;;5072323;28;20024;-77
2021/09/30 08:55:25;;;;;;;2.47;0.43;;;13.00;92.40;;;;;;5073598;28;20039;-77
2021/09/30 08:57:51;;;;;;;1.33;0.47;;;13.10;91.40;;;;;;5071725;28;20060;-77
2021/09/30 09:00:19;;;;;;;2.85;0.47;;;13.20;91.00;;;;;;5072248;28;20028;-76
2021/09/30 09:02:50;;;;;;;2.75;0.43;;;13.20;90.90;;;;;;5072748;28;20127;-77
2021/09/30 09:05:18;;;;;;;1.80;0.40;;;13.30;90.70;;;;;;5073457;28;20465;-77
2021/09/30 09:07:59;;;;;;;4.82;0.57;;;13.30;90.50;;;;;;5072695;28;20111;-77
2021/09/30 09:10:33;;;;;;;1.35;0.50;;;13.20;91.00;;;;;;5072255;28;20047;-77
2021/09/30 09:13:14;;;;;;;1.90;0.40;;;13.30;90.70;;;;;;5072290;28;20354;-77
2021/09/30 09:15:51;;;;;;;3.65;0.70;;;13.30;90.40;;;;;;5071850;28;20029;-77
2021/09/30 09:18:26;;;;;;;2.42;0.40;;;13.30;90.30;;;;;;5072303;28;20024;-77
2021/09/30 09:21:25;;;;;;;3.83;0.73;;;13.40;90.20;;;;;;5072748;28;20021;-77
2021/09/30 09:23:59;;;;;;;3.83;0.75;;;13.50;89.70;;;;;;5071776;28;20029;-77
2021/09/30 09:26:33;;;;;;;2.85;0.35;;;13.60;88.90;;;;;;5071971;28;20025;-77
2021/09/30 09:29:13;;;;;;;2.72;0.80;;;13.60;87.30;;;;;;5072137;28;20469;-77
2021/09/30 09:31:48;;;;;;;1.52;0.52;;;13.70;87.70;;;;;;5073584;28;20024;-77
2021/09/30 09:34:32;;;;;;;2.80;0.40;;;13.70;87.00;;;;;;5076033;28;20024;-77
2021/09/30 09:37:37;;;;;;;1.55;0.40;;;13.80;85.90;;;;;;5092801;28;20213;-77
2021/09/30 09:40:20;;;;;;;3.85;0.50;;;13.80;84.80;;;;;;5014853;28;20085;-77
2021/09/30 09:42:46;;;;;;;1.90;0.30;;;13.90;85.30;;;;;;5072129;28;20033;-76
2021/09/30 09:45:13;;;;;;;2.15;0.40;;;13.90;85.80;;;;;;5075822;28;20021;-77
2021/09/30 09:47:42;;;;;;;3.03;0.47;;;13.90;85.00;;;;;;5075367;28;20032;-77
2021/09/30 09:50:18;;;;;;;3.42;0.60;;;14.00;84.70;;;;;;5076064;28;20029;-77
2021/09/30 09:53:01;;;;;;;2.70;0.40;;;14.00;84.10;;;;;;5075226;28;20029;-77
2021/09/30 09:55:33;;;;;;;1.92;0.50;;;14.10;83.40;;;;;;5075670;28;20020;-77
2021/09/30 09:58:03;;;;;;;3.88;0.57;;;14.10;82.90;;;;;;5092392;28;20123;-77
2021/09/30 10:00:49;;;;;;;2.10;0.30;;;14.00;84.00;;;;;;5075863;28;20039;-76
2021/09/30 10:03:16;;;;;;;2.20;0.30;;;14.00;84.20;;;;;;5095238;28;20052;-76
2021/09/30 10:05:42;;;;;;;2.08;0.30;;;14.00;83.50;;;;;;5075913;28;20127;-77
2021/09/30 10:08:09;;;;;;;3.38;0.40;;;14.00;83.60;;;;;;5076616;28;20178;-77
2021/09/30 10:10:36;;;;;;;1.70;0.43;;;14.00;82.80;;;;;;5076610;28;20461;-77
2021/09/30 10:13:03;;;;;;;1.88;0.40;;;14.00;83.00;;;;;;5075420;28;20024;-76
2021/09/30 10:15:29;;;;;;;1.73;0.30;;;13.90;83.70;;;;;;5075345;28;20032;-76
2021/09/30 10:17:55;;;;;;;4.50;0.52;;;13.90;83.60;;;;;;5075127;28;20493;-76
2021/09/30 10:20:21;;;;;;;3.47;0.40;;;13.90;83.90;;;;;;5076230;28;20031;-77
2021/09/30 10:22:54;;;;;;;3.70;0.40;;;13.90;84.30;;;;;;5075881;28;20056;-77
2021/09/30 10:25:20;;;;;;;0.98;0.22;;;13.90;82.90;;;;;;5075227;28;20029;-76
2021/09/30 10:27:57;;;;;;;3.03;0.55;;;14.00;82.70;;;;;;5074613;28;20103;-76
2021/09/30 10:30:48;;;;;;;1.88;0.40;;;14.00;81.80;;;;;;5074825;28;20040;-76
2021/09/30 10:33:18;;;;;;;1.98;0.38;;;14.00;82.30;;;;;;5065358;28;20036;-77
2021/09/30 10:35:47;;;;;;;1.10;0.40;;;14.00;82.80;;;;;;5075645;28;20036;-77
2021/09/30 10:38:25;;;;;;;1.00;0.40;;;14.10;83.50;;;;;;5076012;28;20462;-76
2021/09/30 10:41:17;;;;;;;2.35;0.38;;;14.10;81.80;;;;;;5075308;28;20043;-76
2021/09/30 10:43:47;;;;;;;2.03;0.40;;;14.10;79.10;;;;;;5070015;28;20037;-77
2021/09/30 10:46:22;;;;;;;4.13;0.40;;;14.10;80.50;;;;;;5075624;28;20039;-76
2021/09/30 10:48:50;;;;;;;2.20;0.30;;;14.20;80.60;;;;;;5075175;28;20099;-77
2021/09/30 10:51:17;;;;;;;1.83;0.60;;;14.20;80.20;;;;;;5074798;28;20488;-76
2021/09/30 10:53:46;;;;;;;4.78;0.50;;;14.30;81.10;;;;;;5074426;28;20043;-77
2021/09/30 10:56:30;;;;;;;1.90;0.50;;;14.30;79.80;;;;;;5091534;28;20052;-76
2021/09/30 10:59:08;;;;;;;3.67;0.50;;;14.40;77.20;;;;;;5090748;28;20029;-77
2021/09/30 11:01:55;;;;;;;2.50;0.38;;;14.50;76.10;;;;;;5075348;28;20064;-77
2021/09/30 11:04:23;;;;;;;2.95;0.35;;;14.60;76.30;;;;;;5094096;28;20036;-77
2021/09/30 11:07:16;;;;;;;2.90;0.32;;;14.60;73.60;;;;;;5074866;28;20060;-77
2021/09/30 11:10:15;;;;;;;1.08;0.20;;;14.70;70.60;;;;;;5073849;28;20025;-77
2021/09/30 11:13:22;;;;;;;8.82;0.85;;;14.80;70.90;;;;;;5073755;28;20036;-78
2021/09/30 11:16:08;;;;;;;1.35;0.30;;;14.90;71.20;;;;;;5073791;28;20024;-77
2021/09/30 11:18:54;;;;;;;3.47;0.30;;;14.90;70.30;;;;;;5106922;28;20039;-76
2021/09/30 11:21:32;;;;;;;0.38;0.17;;;14.90;71.40;;;;;;5075106;28;20032;-77
2021/09/30 11:24:19;;;;;;;0.75;0.20;;;14.90;70.40;;;;;;5074536;28;20029;-76
2021/09/30 11:26:54;;;;;;;3.85;0.30;;;14.90;70.30;;;;;;5090108;28;20474;-80
2021/09/30 11:29:22;;;;;;;1.38;0.22;;;15.00;72.60;;;;;;5090605;28;20039;-77
2021/09/30 11:31:54;;;;;;;1.15;0.25;;;15.00;71.70;;;;;;5090143;28;20024;-77
2021/09/30 11:34:24;;;;;;;;;;;15.00;71.20;;;;;;5091080;28;20029;-76
2021/09/30 11:36:51;;;;;;;2.55;0.20;;;15.10;71.50;;;;;;5072989;28;19999;-77
2021/09/30 11:39:17;;;;;;;2.00;0.40;;;15.10;71.30;;;;;;5074695;28;20027;-76
2021/09/30 11:41:45;;;;;;;0.50;0.15;;;15.30;68.70;;;;;;5073214;28;20029;-77
2021/09/30 11:44:15;;;;;;;1.65;0.20;;;15.50;65.60;;;;;;5073613;28;20025;-77
2021/09/30 11:46:42;;;;;;;1.35;0.20;;;15.60;65.20;;;;;;5073419;28;20123;-77
2021/09/30 11:49:13;;;;;;;1.63;0.20;;;15.60;63.30;;;;;;5074402;28;20056;-76
2021/09/30 11:51:42;;;;;;;3.83;0.37;;;15.60;61.20;;;;;;5073334;28;20028;-77
2021/09/30 11:54:13;;;;;;;0.93;0.32;;;15.80;62.30;;;;;;5074262;28;20029;-77
2021/09/30 11:56:48;;;;;;;0.90;0.38;;;16.00;62.30;;;;;;5072970;28;20139;-77
2021/09/30 11:59:16;;;;;;;1.75;0.40;;;16.10;61.10;;;;;;5073507;28;20028;-76
2021/09/30 12:01:47;;;;;;;1.33;0.13;;;16.20;63.40;;;;;;5074823;28;20046;-76
2021/09/30 12:04:14;;;;;;;0.77;0.20;;;16.30;63.70;;;;;;5072928;28;20111;-77
2021/09/30 12:06:47;;;;;;;1.05;0.20;;;16.40;62.80;;;;;;5073094;28;20388;-77
2021/09/30 12:09:15;;;;;;;1.75;0.30;;;16.50;62.40;;;;;;5073606;28;20123;-77
2021/09/30 12:11:50;;;;;;;3.65;0.43;;;16.60;61.30;;;;;;5073770;28;20055;-77
2021/09/30 12:14:18;;;;;;;0.38;0.20;;;16.70;60.20;;;;;;5073272;28;20047;-77
2021/09/30 12:16:53;;;;;;;1.52;0.40;;;16.90;61.20;;;;;;5072428;28;20461;-80
2021/09/30 12:19:41;;;;;;;2.17;0.40;;;16.90;61.10;;;;;;5089208;28;20043;-77
2021/09/30 12:22:10;;;;;;;2.25;0.28;;;17.10;59.10;;;;;;5072404;28;20024;-77
2021/09/30 12:24:39;;;;;;;1.48;0.43;;;16.80;59.90;;;;;;5072373;28;20032;-77
2021/09/30 12:27:07;;;;;;;2.05;0.30;;;16.70;60.20;;;;;;5073228;28;20032;-76
2021/09/30 12:29:42;;;;;;;0.75;0.32;;;16.90;59.00;;;;;;5072656;28;20419;-77
2021/09/30 12:32:15;;;;;;;2.58;0.32;;;17.10;58.60;;;;;;5072183;28;20031;-78
2021/09/30 12:34:44;;;;;;;3.03;0.52;;;17.50;58.80;;;;;;5073924;28;20541;-77
2021/09/30 12:37:10;;;;;;;2.58;0.25;;;17.70;58.80;;;;;;5072741;28;20033;-77
2021/09/30 12:39:36;;;;;;;0.38;0.20;;;17.90;57.50;;;;;;5072560;28;20032;-77
2021/09/30 12:42:16;;;;;;;1.40;0.30;;;17.80;57.10;;;;;;5072117;28;20058;-77
2021/09/30 12:44:48;;;;;;;4.82;0.30;;;18.00;57.00;;;;;;5072365;28;20020;-77
2021/09/30 12:47:38;;;;;;;5.13;0.70;;;18.10;57.70;;;;;;5072276;28;20058;-77
2021/09/30 12:50:06;;;;;;;2.28;0.30;;;18.50;56.40;;;;;;5073002;28;20033;-77
2021/09/30 12:52:32;;;;;;;1.20;0.20;;;19.10;54.80;;;;;;5089240;28;20107;-78
2021/09/30 12:55:01;;;;;;;1.15;0.30;;;19.20;54.30;;;;;;5071687;28;20020;-77
2021/09/30 12:57:35;;;;;;;1.60;0.43;;;19.30;54.80;;;;;;5071796;28;20050;-77
2021/09/30 13:00:10;;;;;;;0.28;0.20;;;20.30;54.20;;;;;;5071879;28;20020;-78
2021/09/30 13:02:36;;;;;;;3.63;0.93;;;21.10;51.60;;;;;;5072093;28;20074;-77
2021/09/30 13:05:02;;;;;;;2.05;0.25;;;21.70;49.50;;;;;;5071522;28;20029;-78
2021/09/30 13:07:42;;;;;;;1.15;0.30;;;22.10;47.70;;;;;;5071823;28;20032;-77
2021/09/30 13:10:09;;;;;;;1.73;0.30;;;22.50;45.50;;;;;;5071723;28;20074;-78
2021/09/30 13:12:34;;;;;;;1.40;0.50;;;22.80;45.10;;;;;;5071817;28;20059;-77
2021/09/30 13:15:00;;;;;;;1.48;0.30;;;23.30;44.60;;;;;;5071612;28;20044;-78
2021/09/30 13:17:27;;;;;;;0.60;0.30;;;23.50;43.30;;;;;;5071970;28;20033;-77
2021/09/30 13:19:59;;;;;;;1.80;0.30;;;23.90;41.80;;;;;;5072236;28;20020;-78
2021/09/30 13:22:29;;;;;;;2.20;0.30;;;24.50;41.00;;;;;;5073331;28;20021;-78
2021/09/30 13:24:56;;;;;;;3.55;0.38;;;25.00;39.90;;;;;;5071482;28;20223;-78
2021/09/30 13:27:27;;;;;;;1.35;0.20;;;25.40;39.80;;;;;;5071891;28;20473;-78
2021/09/30 13:29:54;;;;;;;3.60;0.23;;;25.90;39.70;;;;;;5071642;28;20123;-79
2021/09/30 13:32:20;;;;;;;1.70;0.40;;;26.40;38.50;;;;;;5073099;28;20474;-78
2021/09/30 13:34:47;;;;;;;1.88;0.40;;;26.50;37.80;;;;;;5071488;28;20032;-78
2021/09/30 13:37:13;;;;;;;1.38;0.30;;;27.00;37.30;;;;;;5071403;28;20640;-78
2021/09/30 13:39:40;;;;;;;2.35;0.30;;;27.20;37.20;;;;;;5071617;28;20071;-78
2021/09/30 13:42:06;;;;;;;2.22;0.50;;;27.60;36.40;;;;;;5071308;28;20381;-78
2021/09/30 13:44:32;;;;;;;0.90;0.30;;;27.20;35.90;;;;;;5072770;28;20031;-78
2021/09/30 13:46:58;;;;;;;0.88;0.40;;;26.30;37.80;;;;;;5071069;28;20032;-79
2021/09/30 13:49:23;;;;;;;1.38;0.22;;;26.00;38.50;;;;;;5072871;28;20382;-78
2021/09/30 13:51:49;;;;;;;1.35;0.35;;;26.00;38.10;;;;;;5072181;28;20090;-83
2021/09/30 13:54:15;;;;;;;0.57;0.35;;;25.80;38.70;;;;;;5071652;28;20021;-78
2021/09/30 13:56:40;;;;;;;1.08;0.30;;;25.70;38.70;;;;;;5071211;28;20055;-78
2021/09/30 13:59:06;;;;;;;1.55;0.38;;;25.50;37.40;;;;;;5072113;28;20052;-78
2021/09/30 14:01:32;;;;;;;1.20;0.30;;;25.20;38.40;;;;;;5071298;28;20031;-78
2021/09/30 14:03:58;;;;;;;3.72;0.57;;;24.80;38.40;;;;;;5070798;28;20032;-78
2021/09/30 14:06:24;;;;;;;1.48;0.40;;;24.10;39.60;;;;;;5072244;28;20039;-78
2021/09/30 14:08:53;;;;;;;2.05;0.40;;;23.80;40.40;;;;;;5070888;28;20028;-82
2021/09/30 14:11:20;;;;;;;1.50;0.28;;;23.10;40.40;;;;;;5072583;28;20021;-78
2021/09/30 14:13:46;;;;;;;1.75;0.57;;;22.60;40.60;;;;;;5071621;28;20105;-78
2021/09/30 14:16:12;;;;;;;2.72;0.65;;;22.20;41.20;;;;;;5070745;28;20474;-78
2021/09/30 14:18:38;;;;;;;1.33;0.30;;;21.80;41.60;;;;;;5073285;28;20024;-78
2021/09/30 14:21:04;;;;;;;1.85;0.47;;;21.60;42.50;;;;;;5074290;28;20035;-78
2021/09/30 14:23:30;;;;;;;1.70;0.30;;;21.30;43.20;;;;;;5074896;28;20473;-77
2021/09/30 14:25:58;;;;;;;2.65;0.73;;;21.10;44.30;;;;;;5074495;28;20034;-78
2021/09/30 14:28:24;;;;;;;2.67;0.40;;;21.00;44.00;;;;;;5074342;28;20029;-77
2021/09/30 14:30:50;;;;;;;0.88;0.32;;;20.90;43.80;;;;;;5074609;28;20032;-77
2021/09/30 14:33:15;;;;;;;1.25;0.30;;;20.80;43.70;;;;;;5073918;28;20382;-77
2021/09/30 14:35:41;;;;;;;3.10;0.50;;;20.50;44.20;;;;;;5074590;28;20510;-77
2021/09/30 14:38:07;;;;;;;1.23;0.30;;;20.30;44.60;;;;;;5074091;28;20484;-77
2021/09/30 14:40:33;;;;;;;1.70;0.30;;;20.00;45.60;;;;;;5075606;28;20031;-77
2021/09/30 14:42:59;;;;;;;1.42;0.30;;;19.60;46.70;;;;;;5074930;28;20116;-77
2021/09/30 14:45:25;;;;;;;2.70;0.30;;;19.30;47.30;;;;;;5074662;28;20052;-77
2021/09/30 14:47:51;;;;;;;1.50;0.35;;;19.30;47.60;;;;;;5075665;28;20035;-77
2021/09/30 14:50:17;;;;;;;2.72;0.43;;;19.10;48.00;;;;;;5074256;28;20484;-77
2021/09/30 14:52:43;;;;;;;2.75;0.20;;;19.10;48.10;;;;;;5074474;28;20028;-77
2021/09/30 14:55:09;;;;;;;1.45;0.30;;;19.10;48.00;;;;;;5075269;28;20024;-77
2021/09/30 14:57:34;;;;;;;2.03;0.10;;;19.10;48.40;;;;;;5075354;28;20128;-77
2021/09/30 15:00:00;;;;;;;2.38;0.20;;;18.80;48.30;;;;;;5073992;28;20078;-77
2021/09/30 15:02:27;;;;;;;1.77;0.35;;;18.60;49.30;;;;;;5075768;28;20577;-77
2021/09/30 15:04:54;;;;;;;2.97;0.55;;;18.60;49.50;;;;;;5074332;28;20047;-80
2021/09/30 15:07:23;;;;;;;2.40;0.28;;;18.60;49.70;;;;;;5074195;28;20121;-77
2021/09/30 15:09:49;;;;;;;1.45;0.40;;;18.60;48.50;;;;;;5074505;28;20039;-77
2021/09/30 15:12:15;;;;;;;2.65;0.50;;;18.50;48.70;;;;;;5073481;28;20025;-77
2021/09/30 15:14:40;;;;;;;1.30;0.20;;;18.40;48.80;;;;;;5074237;28;20024;-77
2021/09/30 15:17:27;;;;;;;1.25;0.40;;;18.30;49.70;;;;;;5074893;28;20413;-77
2021/09/30 15:21:20;;;;;;;1.05;0.40;;;18.20;50.30;;;;;;5074095;28;20032;-77
2021/09/30 15:22:41;;;;;;;1.75;0.40;;;18.10;50.00;;;;;;5074927;28;20123;-77
2021/09/30 15:25:08;;;;;;;1.10;0.32;;;18.00;51.40;;;;;;5073106;28;20028;-77
2021/09/30 15:27:35;;;;;;;1.65;0.40;;;18.00;52.40;;;;;;5073805;28;20063;-77
2021/09/30 15:30:02;;;;;;;1.90;0.40;;;17.90;52.20;;;;;;5073990;28;20504;-77
2021/09/30 15:32:27;;;;;;;1.13;0.30;;;18.00;51.60;;;;;;5075029;28;20028;-77
2021/09/30 15:34:53;;;;;;;3.10;0.40;;;17.90;51.10;;;;;;5073312;28;20031;-77
2021/09/30 15:37:19;;;;;;;0.70;0.22;;;17.80;51.10;;;;;;5074314;28;20032;-77
2021/09/30 15:39:44;;;;;;;0.80;0.35;;;17.80;51.10;;;;;;5074743;28;20039;-77
2021/09/30 15:42:16;;;;;;;1.20;0.32;;;17.60;51.10;;;;;;5073100;28;20457;-77
2021/09/30 15:44:42;;;;;;;;;;;17.60;50.90;;;;;;5073705;28;20563;-77
2021/09/30 15:47:08;;;;;;;2.85;0.43;;;17.60;51.00;;;;;;5073821;28;20007;-77
2021/09/30 15:49:33;;;;;;;3.70;0.30;;;17.60;51.10;;;;;;5073160;28;20033;-76
2021/09/30 15:51:59;;;;;;;2.40;0.43;;;17.50;51.30;;;;;;5072698;28;20025;-76
2021/09/30 15:54:25;;;;;;;2.25;0.35;;;17.30;51.00;;;;;;5073258;28;20029;-76
2021/09/30 15:56:51;;;;;;;2.03;0.38;;;17.30;52.00;;;;;;5074011;28;20504;-76
2021/09/30 15:59:16;;;;;;;1.33;0.32;;;17.20;52.80;;;;;;5072533;28;20031;-76